sensor_id;sensor_type;location;lat;lon;timestamp;temperature;humidity
41882;DHT22;27562;47.524;12.404;2023-08-24T00:00:39;21.70;99.90
41882;DHT22;27562;47.524;12.404;2023-08-24T00:03:05;21.60;99.90
41882;DHT22;27562;47.524;12.404;2023-08-24T00:05:34;21.60;99.90
41882;DHT22;27562;47.524;12.404;2023-08-24T00:08:07;21.60;99.90
41882;DHT22;27562;47.524;12.404;2023-08-24T00:10:36;21.60;99.90
41882;DHT22;27562;47.524;12.404;2023-08-24T00:13:02;21.50;99.90
41882;DHT22;27562;47.524;12.404;2023-08-24T00:15:28;21.50;99.90
41882;DHT22;27562;47.524;12.404;2023-08-24T00:17:55;21.40;99.90
41882;DHT22;27562;47.524;12.404;2023-08-24T00:20:21;21.40;99.90
41882;DHT22;27562;47.524;12.404;2023-08-24T00:22:47;21.40;99.90
41882;DHT22;27562;47.524;12.404;2023-08-24T00:25:13;21.40;99.90
41882;DHT22;27562;47.524;12.404;2023-08-24T00:27:39;21.40;99.90
41882;DHT22;27562;47.524;12.404;2023-08-24T00:30:06;21.30;99.90
41882;DHT22;27562;47.524;12.404;2023-08-24T00:32:33;21.30;99.90
41882;DHT22;27562;47.524;12.404;2023-08-24T00:35:04;21.30;99.90
41882;DHT22;27562;47.524;12.404;2023-08-24T00:37:31;21.30;99.90
41882;DHT22;27562;47.524;12.404;2023-08-24T00:39:59;21.20;99.90
41882;DHT22;27562;47.524;12.404;2023-08-24T00:42:25;21.20;99.90
41882;DHT22;27562;47.524;12.404;2023-08-24T00:44:51;21.20;99.90
41882;DHT22;27562;47.524;12.404;2023-08-24T00:47:17;21.20;99.90
41882;DHT22;27562;47.524;12.404;2023-08-24T00:49:43;21.10;99.90
41882;DHT22;27562;47.524;12.404;2023-08-24T00:52:09;21.20;99.90
41882;DHT22;27562;47.524;12.404;2023-08-24T00:54:37;21.10;99.90
41882;DHT22;27562;47.524;12.404;2023-08-24T00:57:04;21.10;99.90
41882;DHT22;27562;47.524;12.404;2023-08-24T00:59:31;21.10;99.90
41882;DHT22;27562;47.524;12.404;2023-08-24T01:01:57;21.00;99.90
41882;DHT22;27562;47.524;12.404;2023-08-24T01:04:24;20.90;99.90
41882;DHT22;27562;47.524;12.404;2023-08-24T01:06:51;20.90;99.90
41882;DHT22;27562;47.524;12.404;2023-08-24T01:09:18;20.80;99.90
41882;DHT22;27562;47.524;12.404;2023-08-24T01:14:49;20.70;99.90
41882;DHT22;27562;47.524;12.404;2023-08-24T01:17:20;20.70;99.90
41882;DHT22;27562;47.524;12.404;2023-08-24T01:19:47;20.70;99.90
41882;DHT22;27562;47.524;12.404;2023-08-24T01:22:33;20.70;99.90
41882;DHT22;27562;47.524;12.404;2023-08-24T01:25:05;20.70;99.90
41882;DHT22;27562;47.524;12.404;2023-08-24T01:27:36;20.60;99.90
41882;DHT22;27562;47.524;12.404;2023-08-24T01:30:05;20.60;99.90
41882;DHT22;27562;47.524;12.404;2023-08-24T01:32:32;20.60;99.90
41882;DHT22;27562;47.524;12.404;2023-08-24T01:35:02;20.60;99.90
41882;DHT22;27562;47.524;12.404;2023-08-24T01:37:28;20.60;99.90
41882;DHT22;27562;47.524;12.404;2023-08-24T01:42:31;20.50;99.90
41882;DHT22;27562;47.524;12.404;2023-08-24T01:45:03;20.50;99.90
41882;DHT22;27562;47.524;12.404;2023-08-24T01:47:30;20.50;99.90
41882;DHT22;27562;47.524;12.404;2023-08-24T01:49:56;20.40;99.90
41882;DHT22;27562;47.524;12.404;2023-08-24T01:52:23;20.30;99.90
41882;DHT22;27562;47.524;12.404;2023-08-24T01:54:49;20.30;99.90
41882;DHT22;27562;47.524;12.404;2023-08-24T01:57:15;20.20;99.90
41882;DHT22;27562;47.524;12.404;2023-08-24T01:59:41;20.20;99.90
41882;DHT22;27562;47.524;12.404;2023-08-24T02:02:06;20.20;99.90
41882;DHT22;27562;47.524;12.404;2023-08-24T02:04:32;20.20;99.90
41882;DHT22;27562;47.524;12.404;2023-08-24T02:06:58;20.20;99.90
41882;DHT22;27562;47.524;12.404;2023-08-24T02:09:23;20.20;99.90
41882;DHT22;27562;47.524;12.404;2023-08-24T02:11:49;20.10;99.90
41882;DHT22;27562;47.524;12.404;2023-08-24T02:14:14;20.10;99.90
41882;DHT22;27562;47.524;12.404;2023-08-24T02:16:40;20.10;99.90
41882;DHT22;27562;47.524;12.404;2023-08-24T02:19:06;20.10;99.90
41882;DHT22;27562;47.524;12.404;2023-08-24T02:21:31;20.10;99.90
41882;DHT22;27562;47.524;12.404;2023-08-24T02:23:57;20.10;99.90
41882;DHT22;27562;47.524;12.404;2023-08-24T02:26:23;20.00;99.90
41882;DHT22;27562;47.524;12.404;2023-08-24T02:28:48;20.00;99.90
41882;DHT22;27562;47.524;12.404;2023-08-24T02:31:14;20.00;99.90
41882;DHT22;27562;47.524;12.404;2023-08-24T02:33:41;19.90;99.90
41882;DHT22;27562;47.524;12.404;2023-08-24T02:36:07;19.90;99.90
41882;DHT22;27562;47.524;12.404;2023-08-24T02:38:32;19.90;99.90
41882;DHT22;27562;47.524;12.404;2023-08-24T02:41:05;19.90;99.90
41882;DHT22;27562;47.524;12.404;2023-08-24T02:43:32;19.90;99.90
41882;DHT22;27562;47.524;12.404;2023-08-24T02:46:06;19.80;99.90
41882;DHT22;27562;47.524;12.404;2023-08-24T02:48:33;19.80;99.90
41882;DHT22;27562;47.524;12.404;2023-08-24T02:50:59;19.70;99.90
41882;DHT22;27562;47.524;12.404;2023-08-24T02:53:26;19.60;99.90
41882;DHT22;27562;47.524;12.404;2023-08-24T02:55:53;19.60;99.90
41882;DHT22;27562;47.524;12.404;2023-08-24T02:58:20;19.60;99.90
41882;DHT22;27562;47.524;12.404;2023-08-24T03:00:46;19.50;99.90
41882;DHT22;27562;47.524;12.404;2023-08-24T03:03:13;19.30;99.90
41882;DHT22;27562;47.524;12.404;2023-08-24T03:05:40;19.30;99.90
41882;DHT22;27562;47.524;12.404;2023-08-24T03:08:06;19.20;99.90
41882;DHT22;27562;47.524;12.404;2023-08-24T03:10:35;19.20;99.90
41882;DHT22;27562;47.524;12.404;2023-08-24T03:13:01;19.20;99.90
41882;DHT22;27562;47.524;12.404;2023-08-24T03:15:26;19.20;99.90
41882;DHT22;27562;47.524;12.404;2023-08-24T03:17:52;19.20;99.90
41882;DHT22;27562;47.524;12.404;2023-08-24T03:20:18;19.20;99.90
41882;DHT22;27562;47.524;12.404;2023-08-24T03:22:44;19.20;99.90
41882;DHT22;27562;47.524;12.404;2023-08-24T03:25:10;19.20;99.90
41882;DHT22;27562;47.524;12.404;2023-08-24T03:27:37;19.30;99.90
41882;DHT22;27562;47.524;12.404;2023-08-24T03:30:03;19.20;99.90
41882;DHT22;27562;47.524;12.404;2023-08-24T03:32:29;19.10;99.90
41882;DHT22;27562;47.524;12.404;2023-08-24T03:34:59;19.10;99.90
41882;DHT22;27562;47.524;12.404;2023-08-24T03:37:25;19.10;99.90
41882;DHT22;27562;47.524;12.404;2023-08-24T03:39:50;19.10;99.90
41882;DHT22;27562;47.524;12.404;2023-08-24T03:42:16;19.10;99.90
41882;DHT22;27562;47.524;12.404;2023-08-24T03:44:42;19.10;99.90
41882;DHT22;27562;47.524;12.404;2023-08-24T03:47:08;19.10;99.90
41882;DHT22;27562;47.524;12.404;2023-08-24T03:49:34;19.10;99.90
41882;DHT22;27562;47.524;12.404;2023-08-24T03:52:00;19.20;99.90
41882;DHT22;27562;47.524;12.404;2023-08-24T03:54:25;19.10;99.90
41882;DHT22;27562;47.524;12.404;2023-08-24T03:56:51;19.10;99.90
41882;DHT22;27562;47.524;12.404;2023-08-24T03:59:17;19.00;99.90
41882;DHT22;27562;47.524;12.404;2023-08-24T04:01:43;19.00;99.90
41882;DHT22;27562;47.524;12.404;2023-08-24T04:04:08;19.00;99.90
41882;DHT22;27562;47.524;12.404;2023-08-24T04:06:34;18.80;99.90
41882;DHT22;27562;47.524;12.404;2023-08-24T04:09:00;18.70;99.90
41882;DHT22;27562;47.524;12.404;2023-08-24T04:11:25;18.70;99.90
41882;DHT22;27562;47.524;12.404;2023-08-24T04:13:51;18.60;99.90
41882;DHT22;27562;47.524;12.404;2023-08-24T04:16:17;18.50;99.90
41882;DHT22;27562;47.524;12.404;2023-08-24T04:18:42;18.50;99.90
41882;DHT22;27562;47.524;12.404;2023-08-24T04:21:08;18.40;99.90
41882;DHT22;27562;47.524;12.404;2023-08-24T04:23:34;18.50;99.90
41882;DHT22;27562;47.524;12.404;2023-08-24T04:25:59;18.50;99.90
41882;DHT22;27562;47.524;12.404;2023-08-24T04:28:25;18.50;99.90
41882;DHT22;27562;47.524;12.404;2023-08-24T04:30:57;18.60;99.90
41882;DHT22;27562;47.524;12.404;2023-08-24T04:33:22;18.60;99.90
41882;DHT22;27562;47.524;12.404;2023-08-24T04:35:49;18.60;99.90
41882;DHT22;27562;47.524;12.404;2023-08-24T04:38:16;18.50;99.90
41882;DHT22;27562;47.524;12.404;2023-08-24T04:40:52;18.50;99.90
41882;DHT22;27562;47.524;12.404;2023-08-24T04:43:19;18.50;99.90
41882;DHT22;27562;47.524;12.404;2023-08-24T04:45:50;18.50;99.90
41882;DHT22;27562;47.524;12.404;2023-08-24T04:48:22;18.50;99.90
41882;DHT22;27562;47.524;12.404;2023-08-24T04:50:49;18.50;99.90
41882;DHT22;27562;47.524;12.404;2023-08-24T04:53:17;18.50;99.90
41882;DHT22;27562;47.524;12.404;2023-08-24T04:55:43;18.50;99.90
41882;DHT22;27562;47.524;12.404;2023-08-24T04:58:10;18.50;99.90
41882;DHT22;27562;47.524;12.404;2023-08-24T05:00:37;18.50;99.90
41882;DHT22;27562;47.524;12.404;2023-08-24T05:03:04;18.60;99.90
41882;DHT22;27562;47.524;12.404;2023-08-24T05:05:30;18.60;99.90
41882;DHT22;27562;47.524;12.404;2023-08-24T05:07:57;18.60;99.90
41882;DHT22;27562;47.524;12.404;2023-08-24T05:10:24;18.60;99.90
41882;DHT22;27562;47.524;12.404;2023-08-24T05:12:50;18.60;99.90
41882;DHT22;27562;47.524;12.404;2023-08-24T05:15:15;18.50;99.90
41882;DHT22;27562;47.524;12.404;2023-08-24T05:17:41;18.50;99.90
41882;DHT22;27562;47.524;12.404;2023-08-24T05:20:07;18.50;99.90
41882;DHT22;27562;47.524;12.404;2023-08-24T05:22:36;18.50;99.90
41882;DHT22;27562;47.524;12.404;2023-08-24T05:25:02;18.50;99.90
41882;DHT22;27562;47.524;12.404;2023-08-24T05:27:28;18.50;99.90
41882;DHT22;27562;47.524;12.404;2023-08-24T05:29:53;18.50;99.90
41882;DHT22;27562;47.524;12.404;2023-08-24T05:32:19;18.50;99.90
41882;DHT22;27562;47.524;12.404;2023-08-24T05:34:45;18.60;99.90
41882;DHT22;27562;47.524;12.404;2023-08-24T05:37:11;18.60;99.90
41882;DHT22;27562;47.524;12.404;2023-08-24T05:39:37;18.60;99.90
41882;DHT22;27562;47.524;12.404;2023-08-24T05:42:04;18.60;99.90
41882;DHT22;27562;47.524;12.404;2023-08-24T05:44:30;18.70;99.90
41882;DHT22;27562;47.524;12.404;2023-08-24T05:46:55;18.70;99.90
41882;DHT22;27562;47.524;12.404;2023-08-24T05:49:21;18.70;99.90
41882;DHT22;27562;47.524;12.404;2023-08-24T05:51:50;18.80;99.90
41882;DHT22;27562;47.524;12.404;2023-08-24T05:54:17;18.80;99.90
41882;DHT22;27562;47.524;12.404;2023-08-24T05:56:46;18.90;99.90
41882;DHT22;27562;47.524;12.404;2023-08-24T05:59:13;18.90;99.90
41882;DHT22;27562;47.524;12.404;2023-08-24T06:01:39;18.90;99.90
41882;DHT22;27562;47.524;12.404;2023-08-24T06:04:13;19.00;99.90
41882;DHT22;27562;47.524;12.404;2023-08-24T06:06:39;19.00;99.90
41882;DHT22;27562;47.524;12.404;2023-08-24T06:09:05;19.10;99.90
41882;DHT22;27562;47.524;12.404;2023-08-24T06:11:31;19.10;99.90
41882;DHT22;27562;47.524;12.404;2023-08-24T06:13:57;19.20;99.90
41882;DHT22;27562;47.524;12.404;2023-08-24T06:16:23;19.20;99.90
41882;DHT22;27562;47.524;12.404;2023-08-24T06:18:48;19.20;99.90
41882;DHT22;27562;47.524;12.404;2023-08-24T06:21:15;19.30;99.90
41882;DHT22;27562;47.524;12.404;2023-08-24T06:23:41;19.30;99.90
41882;DHT22;27562;47.524;12.404;2023-08-24T06:26:07;19.40;99.90
41882;DHT22;27562;47.524;12.404;2023-08-24T06:28:33;19.40;99.90
41882;DHT22;27562;47.524;12.404;2023-08-24T06:31:00;19.40;99.90
41882;DHT22;27562;47.524;12.404;2023-08-24T06:33:33;19.50;99.90
41882;DHT22;27562;47.524;12.404;2023-08-24T06:35:59;19.60;99.90
41882;DHT22;27562;47.524;12.404;2023-08-24T06:38:25;19.60;99.90
41882;DHT22;27562;47.524;12.404;2023-08-24T06:40:51;19.70;99.90
41882;DHT22;27562;47.524;12.404;2023-08-24T06:43:16;19.70;99.90
41882;DHT22;27562;47.524;12.404;2023-08-24T06:45:44;19.80;99.90
41882;DHT22;27562;47.524;12.404;2023-08-24T06:48:10;19.90;99.90
41882;DHT22;27562;47.524;12.404;2023-08-24T06:50:35;19.90;99.90
41882;DHT22;27562;47.524;12.404;2023-08-24T06:53:04;20.00;99.90
41882;DHT22;27562;47.524;12.404;2023-08-24T06:55:30;20.10;99.90
41882;DHT22;27562;47.524;12.404;2023-08-24T06:57:56;20.10;99.90
41882;DHT22;27562;47.524;12.404;2023-08-24T07:00:23;20.20;99.90
41882;DHT22;27562;47.524;12.404;2023-08-24T07:02:49;20.30;99.90
41882;DHT22;27562;47.524;12.404;2023-08-24T07:05:15;20.40;99.90
41882;DHT22;27562;47.524;12.404;2023-08-24T07:07:47;20.40;99.90
41882;DHT22;27562;47.524;12.404;2023-08-24T07:10:14;20.60;99.90
41882;DHT22;27562;47.524;12.404;2023-08-24T07:12:40;20.60;99.90
41882;DHT22;27562;47.524;12.404;2023-08-24T07:15:07;20.70;99.90
41882;DHT22;27562;47.524;12.404;2023-08-24T07:17:33;20.70;99.90
41882;DHT22;27562;47.524;12.404;2023-08-24T07:19:59;20.80;99.90
41882;DHT22;27562;47.524;12.404;2023-08-24T07:22:24;20.90;99.90
41882;DHT22;27562;47.524;12.404;2023-08-24T07:24:52;21.00;99.90
41882;DHT22;27562;47.524;12.404;2023-08-24T07:27:18;21.10;99.90
41882;DHT22;27562;47.524;12.404;2023-08-24T07:29:44;21.10;99.90
41882;DHT22;27562;47.524;12.404;2023-08-24T07:32:10;21.20;99.90
41882;DHT22;27562;47.524;12.404;2023-08-24T07:34:36;21.30;99.90
41882;DHT22;27562;47.524;12.404;2023-08-24T07:37:01;21.50;99.90
41882;DHT22;27562;47.524;12.404;2023-08-24T07:39:27;21.50;99.90
41882;DHT22;27562;47.524;12.404;2023-08-24T07:41:53;21.60;99.90
41882;DHT22;27562;47.524;12.404;2023-08-24T07:44:19;21.70;99.90
41882;DHT22;27562;47.524;12.404;2023-08-24T07:46:44;21.80;99.90
41882;DHT22;27562;47.524;12.404;2023-08-24T07:49:10;21.90;99.90
41882;DHT22;27562;47.524;12.404;2023-08-24T07:51:36;22.00;99.90
41882;DHT22;27562;47.524;12.404;2023-08-24T07:54:02;22.10;99.90
41882;DHT22;27562;47.524;12.404;2023-08-24T07:56:30;22.20;99.90
41882;DHT22;27562;47.524;12.404;2023-08-24T07:58:55;22.30;99.90
41882;DHT22;27562;47.524;12.404;2023-08-24T08:01:21;22.40;99.90
41882;DHT22;27562;47.524;12.404;2023-08-24T08:03:47;22.50;99.90
41882;DHT22;27562;47.524;12.404;2023-08-24T08:06:13;22.60;99.90
41882;DHT22;27562;47.524;12.404;2023-08-24T08:08:39;22.70;99.90
41882;DHT22;27562;47.524;12.404;2023-08-24T08:11:04;22.80;99.90
41882;DHT22;27562;47.524;12.404;2023-08-24T08:13:30;23.00;99.90
41882;DHT22;27562;47.524;12.404;2023-08-24T08:16:14;23.10;99.90
41882;DHT22;27562;47.524;12.404;2023-08-24T08:18:40;23.20;99.90
41882;DHT22;27562;47.524;12.404;2023-08-24T08:21:23;23.30;99.90
41882;DHT22;27562;47.524;12.404;2023-08-24T08:23:49;23.40;99.90
41882;DHT22;27562;47.524;12.404;2023-08-24T08:26:16;23.60;99.90
41882;DHT22;27562;47.524;12.404;2023-08-24T08:28:42;23.70;99.90
41882;DHT22;27562;47.524;12.404;2023-08-24T08:31:07;23.90;99.90
41882;DHT22;27562;47.524;12.404;2023-08-24T08:33:33;24.00;99.90
41882;DHT22;27562;47.524;12.404;2023-08-24T08:35:59;24.20;99.90
41882;DHT22;27562;47.524;12.404;2023-08-24T08:38:25;24.30;99.90
41882;DHT22;27562;47.524;12.404;2023-08-24T08:40:58;24.40;99.90
41882;DHT22;27562;47.524;12.404;2023-08-24T08:43:27;24.50;99.90
41882;DHT22;27562;47.524;12.404;2023-08-24T08:45:55;24.60;99.90
41882;DHT22;27562;47.524;12.404;2023-08-24T08:48:22;24.70;99.90
41882;DHT22;27562;47.524;12.404;2023-08-24T08:50:49;24.80;99.90
41882;DHT22;27562;47.524;12.404;2023-08-24T08:53:15;24.90;99.90
41882;DHT22;27562;47.524;12.404;2023-08-24T08:55:41;25.10;99.90
41882;DHT22;27562;47.524;12.404;2023-08-24T08:58:07;25.20;99.90
41882;DHT22;27562;47.524;12.404;2023-08-24T09:00:34;25.40;99.90
41882;DHT22;27562;47.524;12.404;2023-08-24T09:03:00;25.50;99.90
41882;DHT22;27562;47.524;12.404;2023-08-24T09:05:27;25.50;99.90
41882;DHT22;27562;47.524;12.404;2023-08-24T09:07:56;25.60;99.90
41882;DHT22;27562;47.524;12.404;2023-08-24T09:10:23;25.80;99.90
41882;DHT22;27562;47.524;12.404;2023-08-24T09:12:49;25.90;99.90
41882;DHT22;27562;47.524;12.404;2023-08-24T09:15:24;26.00;99.90
41882;DHT22;27562;47.524;12.404;2023-08-24T09:17:50;26.10;99.90
41882;DHT22;27562;47.524;12.404;2023-08-24T09:20:16;26.30;99.90
41882;DHT22;27562;47.524;12.404;2023-08-24T09:22:43;26.40;99.90
41882;DHT22;27562;47.524;12.404;2023-08-24T09:25:10;26.50;99.90
41882;DHT22;27562;47.524;12.404;2023-08-24T09:27:36;26.70;99.90
41882;DHT22;27562;47.524;12.404;2023-08-24T09:30:02;26.80;99.90
41882;DHT22;27562;47.524;12.404;2023-08-24T09:32:29;26.90;99.90
41882;DHT22;27562;47.524;12.404;2023-08-24T09:34:55;27.00;99.90
41882;DHT22;27562;47.524;12.404;2023-08-24T09:37:21;27.10;99.90
41882;DHT22;27562;47.524;12.404;2023-08-24T09:39:47;27.20;99.90
41882;DHT22;27562;47.524;12.404;2023-08-24T09:42:14;27.30;99.90
41882;DHT22;27562;47.524;12.404;2023-08-24T09:44:46;27.40;99.90
41882;DHT22;27562;47.524;12.404;2023-08-24T09:47:12;27.50;99.90
41882;DHT22;27562;47.524;12.404;2023-08-24T09:49:38;27.60;99.90
41882;DHT22;27562;47.524;12.404;2023-08-24T09:52:08;27.80;99.90
41882;DHT22;27562;47.524;12.404;2023-08-24T09:54:38;27.80;99.90
41882;DHT22;27562;47.524;12.404;2023-08-24T09:57:05;27.90;99.90
41882;DHT22;27562;47.524;12.404;2023-08-24T09:59:34;28.00;99.90
41882;DHT22;27562;47.524;12.404;2023-08-24T10:02:01;28.10;99.90
41882;DHT22;27562;47.524;12.404;2023-08-24T10:04:33;28.20;99.90
41882;DHT22;27562;47.524;12.404;2023-08-24T10:07:12;28.30;99.90
41882;DHT22;27562;47.524;12.404;2023-08-24T10:10:03;28.40;99.90
41882;DHT22;27562;47.524;12.404;2023-08-24T10:12:32;28.50;99.90
41882;DHT22;27562;47.524;12.404;2023-08-24T10:15:02;28.60;99.90
41882;DHT22;27562;47.524;12.404;2023-08-24T10:17:31;28.70;99.90
41882;DHT22;27562;47.524;12.404;2023-08-24T10:19:58;28.80;99.90
41882;DHT22;27562;47.524;12.404;2023-08-24T10:22:28;28.90;99.90
41882;DHT22;27562;47.524;12.404;2023-08-24T10:24:54;29.10;99.90
41882;DHT22;27562;47.524;12.404;2023-08-24T10:27:23;29.10;99.90
41882;DHT22;27562;47.524;12.404;2023-08-24T10:29:51;29.20;99.90
41882;DHT22;27562;47.524;12.404;2023-08-24T10:32:18;29.20;99.70
41882;DHT22;27562;47.524;12.404;2023-08-24T10:34:45;29.40;99.80
41882;DHT22;27562;47.524;12.404;2023-08-24T10:37:11;29.40;99.60
41882;DHT22;27562;47.524;12.404;2023-08-24T10:39:43;29.50;99.00
41882;DHT22;27562;47.524;12.404;2023-08-24T10:42:11;29.60;99.80
41882;DHT22;27562;47.524;12.404;2023-08-24T10:44:38;29.50;99.90
41882;DHT22;27562;47.524;12.404;2023-08-24T10:47:29;29.70;99.80
41882;DHT22;27562;47.524;12.404;2023-08-24T10:49:58;29.70;99.60
41882;DHT22;27562;47.524;12.404;2023-08-24T10:54:53;29.90;98.40
41882;DHT22;27562;47.524;12.404;2023-08-24T10:57:22;30.10;98.00
41882;DHT22;27562;47.524;12.404;2023-08-24T11:00:05;30.20;97.30
41882;DHT22;27562;47.524;12.404;2023-08-24T11:02:47;30.40;96.60
41882;DHT22;27562;47.524;12.404;2023-08-24T11:05:24;30.50;95.70
41882;DHT22;27562;47.524;12.404;2023-08-24T11:07:58;30.50;94.40
41882;DHT22;27562;47.524;12.404;2023-08-24T11:10:30;30.60;94.00
41882;DHT22;27562;47.524;12.404;2023-08-24T11:15:39;30.80;91.50
41882;DHT22;27562;47.524;12.404;2023-08-24T11:18:25;30.80;91.00
41882;DHT22;27562;47.524;12.404;2023-08-24T11:21:01;31.00;91.20
41882;DHT22;27562;47.524;12.404;2023-08-24T11:23:27;31.10;91.50
41882;DHT22;27562;47.524;12.404;2023-08-24T11:25:54;31.20;90.30
41882;DHT22;27562;47.524;12.404;2023-08-24T11:28:23;31.30;89.30
41882;DHT22;27562;47.524;12.404;2023-08-24T11:30:49;31.40;90.40
41882;DHT22;27562;47.524;12.404;2023-08-24T11:33:16;31.60;90.00
41882;DHT22;27562;47.524;12.404;2023-08-24T11:35:46;31.70;88.80
41882;DHT22;27562;47.524;12.404;2023-08-24T11:38:11;31.80;89.30
41882;DHT22;27562;47.524;12.404;2023-08-24T11:40:38;31.80;87.20
41882;DHT22;27562;47.524;12.404;2023-08-24T11:43:03;31.90;86.50
41882;DHT22;27562;47.524;12.404;2023-08-24T11:45:31;31.90;85.20
41882;DHT22;27562;47.524;12.404;2023-08-24T11:47:58;32.00;83.40
41882;DHT22;27562;47.524;12.404;2023-08-24T11:50:24;32.10;84.30
41882;DHT22;27562;47.524;12.404;2023-08-24T11:52:50;32.20;85.50
41882;DHT22;27562;47.524;12.404;2023-08-24T11:55:18;32.20;84.90
41882;DHT22;27562;47.524;12.404;2023-08-24T11:57:43;32.30;86.10
41882;DHT22;27562;47.524;12.404;2023-08-24T12:00:09;32.40;85.00
41882;DHT22;27562;47.524;12.404;2023-08-24T12:02:40;32.50;83.60
41882;DHT22;27562;47.524;12.404;2023-08-24T12:05:05;32.60;82.30
41882;DHT22;27562;47.524;12.404;2023-08-24T12:07:31;32.70;76.10
41882;DHT22;27562;47.524;12.404;2023-08-24T12:10:00;32.70;79.50
41882;DHT22;27562;47.524;12.404;2023-08-24T12:12:26;32.80;79.50
41882;DHT22;27562;47.524;12.404;2023-08-24T12:14:52;32.80;78.70
41882;DHT22;27562;47.524;12.404;2023-08-24T12:17:18;32.90;76.80
41882;DHT22;27562;47.524;12.404;2023-08-24T12:19:44;32.90;75.50
41882;DHT22;27562;47.524;12.404;2023-08-24T12:22:13;33.00;73.60
41882;DHT22;27562;47.524;12.404;2023-08-24T12:24:43;33.00;74.50
41882;DHT22;27562;47.524;12.404;2023-08-24T12:27:08;33.10;74.60
41882;DHT22;27562;47.524;12.404;2023-08-24T12:29:45;33.10;71.30
41882;DHT22;27562;47.524;12.404;2023-08-24T12:32:11;33.20;69.70
41882;DHT22;27562;47.524;12.404;2023-08-24T12:34:36;33.30;68.40
41882;DHT22;27562;47.524;12.404;2023-08-24T12:37:02;33.30;68.80
41882;DHT22;27562;47.524;12.404;2023-08-24T12:39:27;33.40;66.40
41882;DHT22;27562;47.524;12.404;2023-08-24T12:41:53;33.50;64.40
41882;DHT22;27562;47.524;12.404;2023-08-24T12:44:18;33.50;58.40
41882;DHT22;27562;47.524;12.404;2023-08-24T12:46:44;33.50;59.80
41882;DHT22;27562;47.524;12.404;2023-08-24T12:49:10;33.60;59.40
41882;DHT22;27562;47.524;12.404;2023-08-24T12:51:36;33.70;61.90
41882;DHT22;27562;47.524;12.404;2023-08-24T12:54:01;33.80;61.90
41882;DHT22;27562;47.524;12.404;2023-08-24T12:56:27;33.80;61.30
41882;DHT22;27562;47.524;12.404;2023-08-24T12:58:53;33.80;63.40
41882;DHT22;27562;47.524;12.404;2023-08-24T13:01:19;33.90;61.00
41882;DHT22;27562;47.524;12.404;2023-08-24T13:03:44;33.90;62.20
41882;DHT22;27562;47.524;12.404;2023-08-24T13:06:10;34.00;61.30
41882;DHT22;27562;47.524;12.404;2023-08-24T13:08:35;34.10;60.70
41882;DHT22;27562;47.524;12.404;2023-08-24T13:11:01;34.20;62.40
41882;DHT22;27562;47.524;12.404;2023-08-24T13:13:26;34.30;61.60
41882;DHT22;27562;47.524;12.404;2023-08-24T13:15:52;34.40;61.80
41882;DHT22;27562;47.524;12.404;2023-08-24T13:18:18;34.40;61.80
41882;DHT22;27562;47.524;12.404;2023-08-24T13:20:43;34.50;62.30
41882;DHT22;27562;47.524;12.404;2023-08-24T13:23:09;34.50;60.50
41882;DHT22;27562;47.524;12.404;2023-08-24T13:25:34;34.60;61.20
41882;DHT22;27562;47.524;12.404;2023-08-24T13:28:00;34.70;61.90
41882;DHT22;27562;47.524;12.404;2023-08-24T13:30:26;34.80;62.40
41882;DHT22;27562;47.524;12.404;2023-08-24T13:32:52;34.90;61.60
41882;DHT22;27562;47.524;12.404;2023-08-24T13:35:18;35.00;61.60
41882;DHT22;27562;47.524;12.404;2023-08-24T13:37:43;35.10;61.90
41882;DHT22;27562;47.524;12.404;2023-08-24T13:40:09;35.10;58.70
41882;DHT22;27562;47.524;12.404;2023-08-24T13:42:35;35.10;59.40
41882;DHT22;27562;47.524;12.404;2023-08-24T13:45:01;35.10;61.40
41882;DHT22;27562;47.524;12.404;2023-08-24T13:47:26;35.10;60.50
41882;DHT22;27562;47.524;12.404;2023-08-24T13:49:52;35.20;59.40
41882;DHT22;27562;47.524;12.404;2023-08-24T13:52:18;35.20;59.50
41882;DHT22;27562;47.524;12.404;2023-08-24T13:54:44;35.30;59.90
41882;DHT22;27562;47.524;12.404;2023-08-24T13:57:10;35.40;59.80
41882;DHT22;27562;47.524;12.404;2023-08-24T13:59:35;35.50;59.50
41882;DHT22;27562;47.524;12.404;2023-08-24T14:02:01;35.60;60.50
41882;DHT22;27562;47.524;12.404;2023-08-24T14:04:26;35.70;59.40
41882;DHT22;27562;47.524;12.404;2023-08-24T14:06:52;35.70;60.00
41882;DHT22;27562;47.524;12.404;2023-08-24T14:09:17;35.80;58.90
41882;DHT22;27562;47.524;12.404;2023-08-24T14:11:43;35.80;60.00
41882;DHT22;27562;47.524;12.404;2023-08-24T14:14:08;35.80;60.60
41882;DHT22;27562;47.524;12.404;2023-08-24T14:16:35;35.80;58.40
41882;DHT22;27562;47.524;12.404;2023-08-24T14:19:00;35.90;59.80
41882;DHT22;27562;47.524;12.404;2023-08-24T14:21:26;36.00;58.80
41882;DHT22;27562;47.524;12.404;2023-08-24T14:23:51;36.00;58.50
41882;DHT22;27562;47.524;12.404;2023-08-24T14:26:17;36.00;59.30
41882;DHT22;27562;47.524;12.404;2023-08-24T14:28:55;36.00;58.60
41882;DHT22;27562;47.524;12.404;2023-08-24T14:31:27;36.10;58.80
41882;DHT22;27562;47.524;12.404;2023-08-24T14:33:54;36.10;58.30
41882;DHT22;27562;47.524;12.404;2023-08-24T14:36:20;36.20;58.40
41882;DHT22;27562;47.524;12.404;2023-08-24T14:38:45;36.20;58.50
41882;DHT22;27562;47.524;12.404;2023-08-24T14:41:12;36.20;58.10
41882;DHT22;27562;47.524;12.404;2023-08-24T14:43:38;36.30;58.10
41882;DHT22;27562;47.524;12.404;2023-08-24T14:46:04;36.30;57.10
41882;DHT22;27562;47.524;12.404;2023-08-24T14:48:29;36.20;56.80
41882;DHT22;27562;47.524;12.404;2023-08-24T14:50:55;36.20;56.50
41882;DHT22;27562;47.524;12.404;2023-08-24T14:53:22;36.20;56.50
41882;DHT22;27562;47.524;12.404;2023-08-24T14:55:48;36.20;57.00
41882;DHT22;27562;47.524;12.404;2023-08-24T14:58:13;36.20;57.60
41882;DHT22;27562;47.524;12.404;2023-08-24T15:00:39;36.20;58.20
41882;DHT22;27562;47.524;12.404;2023-08-24T15:03:05;36.20;56.60
41882;DHT22;27562;47.524;12.404;2023-08-24T15:05:30;36.20;56.00
41882;DHT22;27562;47.524;12.404;2023-08-24T15:07:56;36.20;54.50
41882;DHT22;27562;47.524;12.404;2023-08-24T15:10:21;36.20;56.10
41882;DHT22;27562;47.524;12.404;2023-08-24T15:12:47;36.20;55.90
41882;DHT22;27562;47.524;12.404;2023-08-24T15:15:12;36.10;56.00
41882;DHT22;27562;47.524;12.404;2023-08-24T15:17:44;36.10;56.00
41882;DHT22;27562;47.524;12.404;2023-08-24T15:20:10;36.10;57.40
41882;DHT22;27562;47.524;12.404;2023-08-24T15:22:38;36.10;57.20
41882;DHT22;27562;47.524;12.404;2023-08-24T15:25:04;36.00;57.10